Lithia Springs, Georgia
Current Conditions -  °F | °C
As of 5:53 AM on Saturday 22 Nov 2014 (Local Time) from KFTY Reporting Station
Clear Clear  
Wind Chill: 30°   Ceiling: Unl
Heat Index: 36°   Visibility: 10mi
Dew Point: 30°   Wind: 7mph
Humidity: 79%   Direction: 30°NNE
Pressure: 30.44"   Gusts: NA
Location:  33.79°N, 84.66°W
Report Text: KFTY 221053Z 03006KT 10SM CLR 02/M01 A3044 RMK AO2 SLP309 T00221011
Loading
Personal Weather Stations






























Interactive Weather Map New forecast layout! Learn more

10-Day Weather Forecast

Advertisements
Track Severe Weather on mobile